Weather observations for the past three days for
Gwinnett County Airport-Briscoe Field
Imperial (Metric)
Date Time (edt) Wind (mph) Vis. (mi.) Weather Sky Cond. Temperature (ºF) Relative Humidity Wind Chill (°F) Heat Index (°F) Pressure Precipitation (in)
Air Dwpt 6 hour altimeter (in) sea level (mb) 1 hr 3 hr 6 hr
Max. Min.
03 22:56 Calm 10.00 Fair CLR 55 41 59% 30.08 1019.5
03 21:56 Calm 10.00 Fair CLR 57.9 39.9 51% 30.06 1018.8
03 20:56 W 5 10.00 Fair CLR 62.1 37.9 41% 30.04 1018.1
03 19:56 W 5 10.00 Fair CLR 66 37.9 70 64.9 36% 30.03 1017.8
03 18:56 W 9 10.00 Fair CLR 68 34 28% 30.04 1017.9
03 17:56 W 8 10.00 Fair CLR 70 35.1 28% 30.04 1017.9
03 16:56 W 8 10.00 Fair CLR 70 35.1 28% 30.05 1018.2
03 15:56 Vrbl 7 10.00 Fair CLR 69.1 35.1 29% 30.07 1019.1
03 14:56 Vrbl 7 10.00 Fair CLR 66.9 37 33% 30.1 1020.1
03 13:56 W 6 10.00 Fair CLR 66 37 66 46.9 34% 30.12 1020.7
03 12:56 Calm 10.00 Fair CLR 64 37 37% 30.13 1021.2
03 11:56 S 6 10.00 Fair CLR 62.1 37.9 41% 30.15 1021.8
03 10:56 Vrbl 5 10.00 Fair CLR 59 37.9 46% 30.15 1021.9
03 09:56 Vrbl 5 10.00 Fair CLR 57.9 39.9 51% 30.14 1021.4
03 08:56 Vrbl 3 10.00 Fair CLR 53.1 41 64% 30.13 1021.2
03 07:56 Vrbl 5 10.00 Fair CLR 46.9 41 48 42.1 80% 45 30.12 1021.1
03 06:56 Calm 10.00 Fair CLR 43 39 86% 30.11 1020.5
03 05:56 Calm 10.00 Fair CLR 43 41 93% 30.09 1019.7
03 04:56 SW 3 10.00 Fair CLR 45 39.9 83% 30.08 1019.5
03 03:56 Calm 10.00 Fair CLR 45 39 80% 30.07 1019.0
03 02:56 Calm 10.00 Fair CLR 46 41 83% 30.05 1018.4
03 01:56 Calm 10.00 A Few Clouds FEW090 48 39 62.1 46.9 71% 30.05 1018.5
03 00:56 Calm 10.00 Fair CLR 46.9 41 80% 30.04 1018.3
02 23:56 Calm 10.00 Fair CLR 50 39 66% 30.04 1018.0
02 22:56 Calm 10.00 Fair CLR 53.1 37 55% 30.02 1017.5
02 21:56 Calm 10.00 Fair CLR 57 34 42% 30 1016.7
02 20:56 Vrbl 6 10.00 Fair CLR 60.1 32 35% 29.97 1015.7
02 19:56 Vrbl 6 G 17 10.00 Fair CLR 63 30.9 70 63 30% 29.94 1014.6
02 18:56 NW 9 G 17 10.00 Fair CLR 66 32 28% 29.91 1013.6
02 17:56 W 14 G 22 10.00 A Few Clouds FEW045 68 36 31% 29.89 1012.9
02 16:56 W 10 10.00 Partly Cloudy SCT060 69.1 43 39% 29.87 1012.0
02 15:56 W 10 G 17 10.00 Mostly Cloudy BKN050 68 43 40% 29.87 1011.9
02 14:56 Vrbl 6 10.00 Partly Cloudy SCT047 SCT075 68 46.9 47% 29.88 1012.3
02 13:56 Vrbl 5 10.00 Overcast SCT043 SCT050 OVC065 66.9 48 66.9 55.9 51% 29.89 1012.8 0.01
02 12:56 Calm 10.00 Mostly Cloudy BKN035 BKN110 64.9 50 59% 29.91 1013.3
02 11:56 Vrbl 5 10.00 Fair CLR 62.1 50 65% 29.92 1013.9
02 10:56 NW 3 10.00 A Few Clouds FEW110 61 48.9 65% 29.92 1013.9 0.01
02 09:56 W 3 10.00 Partly Cloudy SCT110 57.9 48.9 72% 29.9 1013.3
02 08:56 Calm 10.00 Fair CLR 57 48.9 74% 29.89 1013.0 0.01
02 07:56 Calm 10.00 Light Rain CLR 55.9 52 60.1 55 87% 29.88 1012.5
02 06:56 Calm 10.00 Mostly Cloudy BKN100 55.9 50 81% 29.89 1013.0
02 05:56 Calm 10.00 A Few Clouds FEW100 55.9 51.1 84% 29.87 1012.1
02 04:56 Calm 10.00 Mostly Cloudy BKN100 55.9 52 87% 29.87 1012.1
02 03:56 Calm 10.00 Light Rain FEW095 55.9 52 87% 29.88 1012.5
02 02:56 W 6 10.00 Fair CLR 57.9 48.9 72% 29.9 1013.1
02 01:56 W 3 10.00 Light Rain CLR 60.1 46.9 63 60.1 62% 29.9 1013.2
02 00:56 NW 3 10.00 Mostly Cloudy BKN100 62.1 45 54% 29.91 1013.3
01 23:56 W 3 10.00 Partly Cloudy SCT110 61 48 63% 29.93 1014.0
01 22:56 W 5 10.00 Mostly Cloudy BKN110 61 48.9 65% 29.94 1014.3
01 21:56 W 3 10.00 Mostly Cloudy BKN110 62.1 48.9 62% 29.93 1014.1
01 20:56 W 3 10.00 Mostly Cloudy BKN110 62.1 48 60% 29.92 1013.8
01 19:56 W 3 10.00 Partly Cloudy SCT120 63 48 66.9 63 58% 29.9 1013.0
01 18:56 Calm 10.00 A Few Clouds FEW120 64 46 52% 29.9 1013.0
01 16:56 Vrbl 3 10.00 Fair CLR 64.9 46 51% 29.92 1013.9
01 15:56 Calm 10.00 Fair CLR 64.9 46.9 52% 29.93 1014.2
01 14:56 NE 5 10.00 Fair CLR 64.9 46 51% 29.95 1014.8
01 13:56 Vrbl 5 10.00 Fair CLR 63 45 63 57.9 52% 29.96 1015.2
01 12:56 NE 6 10.00 Fair CLR 63 44.1 50% 29.98 1015.7
01 11:56 NE 7 10.00 Fair CLR 61 43 52% 29.98 1015.9
01 10:56 NE 8 10.00 Fair CLR 60.1 43 53% 29.98 1015.9
01 09:56 E 9 10.00 Fair CLR 59 43 56% 29.97 1015.6
01 08:56 NE 6 10.00 Fair CLR 57.9 44.1 60% 29.96 1015.2
01 07:56 Vrbl 6 10.00 Fair CLR 57.9 43 57.9 55.9 58% 29.94 1014.4
01 06:56 E 6 10.00 Partly Cloudy SCT110 57 45 64% 29.92 1013.6
01 05:56 Calm 10.00 Partly Cloudy SCT110 57 46.9 69% 29.91 1013.3
01 04:56 Calm 10.00 Mostly Cloudy BKN110 57 48.9 74% 29.92 1013.8
01 03:56 NW 3 10.00 Mostly Cloudy BKN110 57 48 72% 29.91 1013.4
01 02:56 W 5 10.00 Mostly Cloudy BKN110 57 48 72% 29.9 1013.2
01 01:56 Calm 10.00 Partly Cloudy SCT120 57.9 46.9 64.9 57.9 67% 29.91 1013.3
01 00:56 Calm 10.00 Fair CLR 57.9 46 65% 29.91 1013.5
30 23:56 Calm 10.00 Fair CLR 59 46 62% 29.91 1013.5
Date Time (edt) Wind (mph) Vis. (mi.) Weather Sky Cond. Air Dwpt Max. Min. Relative Humidity Wind Chill (°F) Heat Index (°F) altimeter (in) sea level (mb) 1 hr 3 hr 6 hr
6 hour
Temperature (ºF) Pressure Precipitation (in)